createdAt,value
2023-06-13T00:00:13.371Z,0.50
2023-06-13T00:03:16.366Z,0.93
2023-06-13T00:06:18.965Z,0.60
2023-06-13T00:09:22.244Z,0.60
2023-06-13T00:12:26.611Z,0.73
2023-06-13T00:15:32.570Z,0.70
2023-06-13T00:18:36.760Z,0.80
2023-06-13T00:21:39.633Z,0.60
2023-06-13T00:24:42.746Z,0.77
2023-06-13T00:27:45.317Z,1.15
2023-06-13T00:30:47.963Z,0.90
2023-06-13T00:33:52.176Z,1.17
2023-06-13T00:36:56.814Z,0.70
2023-06-13T00:39:59.325Z,0.70
2023-06-13T00:43:01.835Z,0.60
2023-06-13T00:46:04.803Z,0.60
2023-06-13T00:49:07.485Z,0.80
2023-06-13T00:52:10.375Z,0.63
2023-06-13T00:55:12.845Z,0.70
2023-06-13T00:58:17.056Z,0.50
2023-06-13T01:01:24.081Z,0.43
2023-06-13T01:04:28.597Z,1.10
2023-06-13T01:07:34.825Z,0.60
2023-06-13T01:10:41.382Z,0.70
2023-06-13T01:13:53.327Z,0.70
2023-06-13T01:17:04.599Z,0.70
2023-06-13T01:20:12.496Z,0.70
2023-06-13T01:23:31.744Z,0.60
2023-06-13T01:26:54.203Z,0.57
2023-06-13T01:29:58.168Z,0.70
2023-06-13T01:33:02.026Z,0.63
2023-06-13T01:36:05.207Z,1.10
2023-06-13T01:39:08.955Z,0.70
2023-06-13T01:42:11.836Z,0.60
2023-06-13T01:45:14.367Z,0.60
2023-06-13T01:48:36.919Z,0.52
2023-06-13T01:51:48.517Z,0.60
2023-06-13T01:54:56.925Z,0.60
2023-06-13T01:58:06.453Z,0.60
2023-06-13T02:01:10.229Z,0.80
2023-06-13T02:04:12.762Z,0.70
2023-06-13T02:07:15.241Z,0.70
2023-06-13T02:10:17.909Z,0.60
2023-06-13T02:13:20.612Z,0.70
2023-06-13T02:16:26.680Z,0.70
2023-06-13T02:19:31.203Z,0.63
2023-06-13T02:22:34.389Z,0.63
2023-06-13T02:25:36.952Z,0.50
2023-06-13T02:28:39.450Z,0.85
2023-06-13T02:31:42.934Z,0.60
2023-06-13T02:34:45.845Z,0.68
2023-06-13T02:37:48.294Z,1.88
2023-06-13T02:40:50.753Z,0.50
2023-06-13T02:43:53.274Z,0.60
2023-06-13T02:46:55.923Z,0.82
2023-06-13T02:49:58.390Z,0.75
2023-06-13T02:53:02.337Z,0.45
2023-06-13T02:56:05.044Z,0.70
2023-06-13T02:59:07.745Z,0.55
2023-06-13T03:02:10.202Z,0.60
2023-06-13T03:05:17.237Z,0.50
2023-06-13T03:08:24.638Z,0.70
2023-06-13T03:11:27.213Z,0.70
2023-06-13T03:14:30.085Z,0.60
2023-06-13T03:17:34.576Z,0.70
2023-06-13T03:20:38.457Z,0.60
2023-06-13T03:23:41.467Z,0.80
2023-06-13T03:26:44.597Z,0.50
2023-06-13T03:29:48.331Z,1.10
2023-06-13T03:32:56.424Z,0.60
2023-06-13T03:36:02.073Z,0.70
2023-06-13T03:39:04.945Z,0.60
2023-06-13T03:42:09.086Z,0.60
2023-06-13T03:45:11.883Z,0.70
2023-06-13T03:48:14.351Z,0.60
2023-06-13T03:51:17.057Z,0.80
2023-06-13T03:54:22.141Z,0.80
2023-06-13T03:57:24.627Z,0.60
2023-06-13T04:00:28.144Z,0.70
2023-06-13T04:03:31.337Z,1.70
2023-06-13T04:06:33.937Z,0.70
2023-06-13T04:09:36.523Z,1.10
2023-06-13T04:12:39.003Z,1.33
2023-06-13T04:15:41.558Z,0.60
2023-06-13T04:18:44.516Z,0.82
2023-06-13T04:21:47.720Z,0.70
2023-06-13T04:24:51.313Z,1.10
2023-06-13T04:27:54.405Z,0.70
2023-06-13T04:31:01.435Z,0.70
2023-06-13T04:34:08.927Z,0.70
2023-06-13T04:37:12.789Z,0.82
2023-06-13T04:40:16.141Z,0.70
2023-06-13T04:43:18.944Z,0.83
2023-06-13T04:46:21.418Z,0.75
2023-06-13T04:49:23.828Z,0.70
2023-06-13T04:52:27.406Z,0.60
2023-06-13T04:55:33.768Z,0.60
2023-06-13T04:58:36.688Z,0.50
2023-06-13T05:01:39.330Z,0.60
2023-06-13T05:04:43.392Z,0.80
2023-06-13T05:07:45.937Z,0.65
2023-06-13T05:10:49.307Z,0.90
2023-06-13T05:13:51.773Z,0.70
2023-06-13T05:16:55.105Z,0.57
2023-06-13T05:19:57.512Z,1.25
2023-06-13T05:23:01.564Z,0.77
2023-06-13T05:26:04.062Z,0.73
2023-06-13T05:29:09.516Z,0.73
2023-06-13T05:32:12.044Z,0.70
2023-06-13T05:35:14.586Z,0.70
2023-06-13T05:38:17.077Z,0.70
2023-06-13T05:41:19.914Z,0.80
2023-06-13T05:44:25.312Z,0.80
2023-06-13T05:47:29.697Z,0.70
2023-06-13T05:50:32.511Z,0.70
2023-06-13T05:53:35.097Z,0.73
2023-06-13T05:56:37.585Z,0.80
2023-06-13T05:59:40.144Z,0.60
2023-06-13T06:02:44.110Z,0.70
2023-06-13T06:05:47.118Z,1.38
2023-06-13T06:08:49.607Z,0.80
2023-06-13T06:11:53.775Z,1.05
2023-06-13T06:14:56.213Z,0.77
2023-06-13T06:17:59.249Z,1.33
2023-06-13T06:21:03.723Z,1.75
2023-06-13T06:24:08.171Z,1.13
2023-06-13T06:27:12.429Z,0.80
2023-06-13T06:34:53.418Z,0.70
2023-06-13T06:37:57.928Z,1.00
2023-06-13T06:41:02.758Z,0.90
2023-06-13T06:44:07.742Z,1.20
2023-06-13T06:47:11.141Z,1.17
2023-06-13T06:50:14.054Z,0.73
2023-06-13T06:53:16.958Z,0.75
2023-06-13T06:56:19.978Z,1.05
2023-06-13T06:59:22.462Z,0.90
2023-06-13T07:02:24.906Z,0.83
2023-06-13T07:05:27.621Z,1.15
2023-06-13T07:08:30.080Z,1.30
2023-06-13T07:11:32.606Z,0.73
2023-06-13T07:14:35.156Z,1.13
2023-06-13T07:17:37.746Z,0.93
2023-06-13T07:20:40.546Z,1.45
2023-06-13T07:23:53.313Z,0.90
2023-06-13T07:27:05.736Z,0.88
2023-06-13T07:30:09.799Z,1.20
2023-06-13T07:33:13.034Z,1.00
2023-06-13T07:36:17.806Z,1.00
2023-06-13T07:39:20.362Z,1.38
2023-06-13T07:42:22.947Z,1.20
2023-06-13T07:45:27.847Z,1.60
2023-06-13T07:48:30.687Z,0.90
2023-06-13T07:51:33.490Z,0.90
2023-06-13T07:54:37.797Z,1.17
2023-06-13T07:57:57.883Z,1.23
2023-06-13T08:01:04.460Z,0.73
2023-06-13T08:04:08.745Z,1.10
2023-06-13T08:07:12.562Z,1.02
2023-06-13T08:10:15.865Z,1.30
2023-06-13T08:13:18.948Z,1.00
2023-06-13T08:16:21.767Z,1.00
2023-06-13T08:19:24.628Z,1.20
2023-06-13T08:22:28.115Z,1.55
2023-06-13T08:25:30.724Z,1.10
2023-06-13T08:28:33.202Z,1.42
2023-06-13T08:34:43.667Z,1.13
2023-06-13T08:37:46.288Z,1.08
2023-06-13T08:40:49.131Z,1.63
2023-06-13T08:43:53.175Z,1.23
2023-06-13T08:46:56.095Z,1.10
2023-06-13T08:50:01.576Z,1.10
2023-06-13T08:53:04.994Z,0.90
2023-06-13T08:56:09.010Z,1.60
2023-06-13T08:59:25.419Z,1.05
2023-06-13T09:02:29.859Z,1.00
2023-06-13T09:05:33.488Z,1.00
2023-06-13T09:08:38.190Z,1.27
2023-06-13T09:11:41.752Z,1.30
2023-06-13T09:14:45.614Z,1.60
2023-06-13T09:17:48.909Z,2.10
2023-06-13T09:20:51.813Z,1.10
2023-06-13T09:23:57.212Z,1.08
2023-06-13T09:27:02.385Z,1.20
2023-06-13T09:30:05.560Z,0.98
2023-06-13T09:33:09.245Z,1.80
2023-06-13T09:36:12.414Z,1.33
2023-06-13T09:39:15.032Z,1.02
2023-06-13T09:42:22.954Z,1.20
2023-06-13T09:45:25.394Z,1.30
2023-06-13T09:48:27.836Z,1.20
2023-06-13T09:51:30.860Z,1.20
2023-06-13T09:54:35.546Z,1.10
2023-06-13T09:57:55.414Z,1.30
2023-06-13T10:01:01.583Z,1.10
2023-06-13T10:04:04.350Z,1.20
2023-06-13T10:07:06.954Z,1.00
2023-06-13T10:10:10.030Z,1.60
2023-06-13T10:13:19.659Z,1.58
2023-06-13T10:16:23.224Z,1.30
2023-06-13T10:19:26.986Z,3.60
2023-06-13T10:22:29.689Z,1.60
2023-06-13T10:25:33.119Z,3.30
2023-06-13T10:29:01.226Z,1.30
2023-06-13T10:32:57.887Z,4.18
2023-06-13T10:36:06.210Z,1.42
2023-06-13T10:39:30.451Z,1.40
2023-06-13T10:42:41.604Z,1.83
2023-06-13T10:45:46.471Z,1.60
2023-06-13T10:48:56.135Z,1.92
2023-06-13T10:51:58.736Z,1.70
2023-06-13T10:55:02.977Z,1.23
2023-06-13T10:58:13.495Z,1.52
2023-06-13T11:01:31.966Z,1.65
2023-06-13T11:04:34.753Z,1.90
2023-06-13T11:07:37.987Z,1.58
2023-06-13T11:10:40.518Z,1.67
2023-06-13T11:13:44.381Z,1.50
2023-06-13T11:16:47.621Z,1.42
2023-06-13T11:19:54.863Z,1.50
2023-06-13T11:22:58.132Z,2.15
2023-06-13T11:26:00.662Z,2.60
2023-06-13T11:29:04.355Z,1.40
2023-06-13T11:32:09.641Z,1.67
2023-06-13T11:35:16.491Z,1.40
2023-06-13T11:38:32.471Z,1.58
2023-06-13T11:41:35.276Z,1.30
2023-06-13T11:44:39.510Z,2.38
2023-06-13T11:47:45.759Z,3.92
2023-06-13T11:50:48.355Z,1.42
2023-06-13T11:53:56.713Z,2.25
2023-06-13T11:57:04.613Z,1.83
2023-06-13T12:00:09.019Z,1.55
2023-06-13T12:03:13.466Z,1.65
2023-06-13T12:06:18.270Z,2.10
2023-06-13T12:09:21.141Z,1.67
2023-06-13T12:12:23.705Z,1.60
2023-06-13T12:15:27.460Z,1.67
2023-06-13T12:18:29.950Z,1.67
2023-06-13T12:21:34.941Z,2.55
2023-06-13T12:24:37.589Z,2.17
2023-06-13T12:27:40.327Z,2.23
2023-06-13T12:30:44.453Z,1.55
2023-06-13T12:33:48.815Z,2.22
2023-06-13T12:36:52.141Z,1.92
2023-06-13T12:40:13.365Z,1.67
2023-06-13T12:43:17.010Z,2.37
2023-06-13T12:46:19.886Z,1.42
2023-06-13T12:49:23.955Z,2.13
2023-06-13T12:52:27.345Z,2.47
2023-06-13T12:55:30.068Z,2.58
2023-06-13T12:58:37.135Z,1.90
2023-06-13T13:01:41.667Z,2.08
2023-06-13T13:04:45.406Z,1.60
2023-06-13T13:07:50.690Z,2.15
2023-06-13T13:10:54.029Z,2.22
2023-06-13T13:13:56.567Z,2.60
2023-06-13T13:16:59.590Z,2.63
2023-06-13T13:20:02.084Z,2.17
2023-06-13T13:23:04.698Z,1.85
2023-06-13T13:26:07.843Z,3.35
2023-06-13T13:29:10.792Z,1.93
2023-06-13T13:32:13.338Z,1.98
2023-06-13T13:35:16.772Z,1.58
2023-06-13T13:38:19.542Z,2.60
2023-06-13T13:41:22.604Z,3.40
2023-06-13T13:44:25.069Z,3.30
2023-06-13T13:47:27.628Z,1.55
2023-06-13T13:50:30.255Z,2.00
2023-06-13T13:53:32.867Z,1.90
2023-06-13T13:56:35.345Z,1.42
2023-06-13T13:59:37.901Z,1.60
2023-06-13T14:02:40.406Z,2.13
2023-06-13T14:05:43.071Z,1.33
2023-06-13T14:08:45.715Z,1.63
2023-06-13T14:11:49.600Z,1.98
2023-06-13T14:14:52.180Z,3.67
2023-06-13T14:17:55.093Z,2.70
2023-06-13T14:20:58.820Z,3.20
2023-06-13T14:24:01.465Z,2.83
2023-06-13T14:27:04.576Z,3.22
2023-06-13T14:30:17.099Z,3.50
2023-06-13T14:33:20.458Z,4.30
2023-06-13T14:36:23.247Z,3.30
2023-06-13T14:39:25.822Z,3.67
2023-06-13T14:42:28.257Z,3.60
2023-06-13T14:45:30.885Z,3.40
2023-06-13T14:48:33.379Z,3.80
2023-06-13T14:51:35.831Z,4.00
2023-06-13T14:54:38.399Z,3.80
2023-06-13T14:57:42.017Z,3.90
2023-06-13T15:00:44.419Z,3.70
2023-06-13T15:03:47.481Z,4.13
2023-06-13T15:06:50.950Z,4.10
2023-06-13T15:09:53.471Z,3.90
2023-06-13T15:12:56.007Z,4.22
2023-06-13T15:15:58.583Z,3.80
2023-06-13T15:19:01.142Z,3.95
2023-06-13T15:22:03.832Z,3.30
2023-06-13T15:25:07.418Z,4.07
2023-06-13T15:28:10.628Z,3.53
2023-06-13T15:31:13.323Z,4.30
2023-06-13T15:34:15.811Z,3.35
2023-06-13T15:37:21.833Z,4.03
2023-06-13T15:40:24.545Z,4.10
2023-06-13T15:43:27.138Z,4.00
2023-06-13T15:46:29.842Z,3.97
2023-06-13T15:49:32.393Z,3.70
2023-06-13T15:52:34.850Z,3.53
2023-06-13T15:55:39.623Z,3.40
2023-06-13T15:58:43.153Z,3.97
2023-06-13T16:01:46.240Z,3.50
2023-06-13T16:04:48.805Z,3.90
2023-06-13T16:07:51.542Z,3.60
2023-06-13T16:10:54.089Z,3.28
2023-06-13T16:13:57.306Z,2.65
2023-06-13T16:16:59.839Z,2.43
2023-06-13T16:20:02.438Z,1.90
2023-06-13T16:23:04.970Z,1.77
2023-06-13T16:26:07.676Z,2.80
2023-06-13T16:29:10.163Z,3.25
2023-06-13T16:32:12.587Z,2.70
2023-06-13T16:35:15.400Z,3.03
2023-06-13T16:38:18.080Z,2.70
2023-06-13T16:41:20.864Z,3.38
2023-06-13T16:44:23.319Z,3.13
2023-06-13T16:47:25.933Z,2.90
2023-06-13T16:50:28.524Z,3.30
2023-06-13T16:53:31.048Z,2.85
2023-06-13T16:56:34.100Z,2.45
2023-06-13T16:59:36.647Z,1.90
2023-06-13T17:02:39.259Z,1.60
2023-06-13T17:05:41.829Z,1.85
2023-06-13T17:08:44.310Z,1.70
2023-06-13T17:11:47.747Z,1.58
2023-06-13T17:14:50.693Z,1.73
2023-06-13T17:17:53.365Z,1.50
2023-06-13T17:20:59.145Z,1.10
2023-06-13T17:24:04.052Z,1.65
2023-06-13T17:27:07.962Z,1.92
2023-06-13T17:30:10.877Z,1.85
2023-06-13T17:33:13.512Z,1.37
2023-06-13T17:36:16.236Z,1.35
2023-06-13T17:39:18.673Z,1.05
2023-06-13T17:42:22.887Z,1.00
2023-06-13T17:45:25.541Z,1.23
2023-06-13T17:48:28.002Z,1.27
2023-06-13T17:51:30.482Z,1.70
2023-06-13T17:54:33.039Z,1.33
2023-06-13T17:57:35.835Z,1.30
2023-06-13T18:00:38.323Z,0.93
2023-06-13T18:03:41.742Z,1.53
2023-06-13T18:06:44.726Z,1.70
2023-06-13T18:09:47.227Z,1.20
2023-06-13T18:12:49.671Z,1.20
2023-06-13T18:15:52.265Z,1.65
2023-06-13T18:18:55.831Z,1.23
2023-06-13T18:21:58.302Z,1.70
2023-06-13T18:25:00.804Z,2.10
2023-06-13T18:28:05.379Z,0.98
2023-06-13T18:31:09.104Z,1.70
2023-06-13T18:34:11.940Z,1.00
2023-06-13T18:37:14.463Z,1.00
2023-06-13T18:40:17.967Z,1.30
2023-06-13T18:43:20.587Z,0.90
2023-06-13T18:46:23.482Z,1.20
2023-06-13T18:49:27.732Z,1.23
2023-06-13T18:52:30.575Z,1.30
2023-06-13T18:55:33.513Z,1.05
2023-06-13T18:58:36.506Z,1.00
2023-06-13T19:01:41.159Z,1.40
2023-06-13T19:04:44.685Z,1.37
2023-06-13T19:07:47.296Z,1.25
2023-06-13T19:10:50.156Z,1.67
2023-06-13T19:13:54.196Z,1.35
2023-06-13T19:16:57.015Z,1.00
2023-06-13T19:19:59.567Z,1.03
2023-06-13T19:23:02.522Z,2.30
2023-06-13T19:26:05.071Z,1.52
2023-06-13T19:29:07.591Z,1.10
2023-06-13T19:32:10.124Z,1.98
2023-06-13T19:35:14.107Z,1.30
2023-06-13T19:38:20.778Z,3.58
2023-06-13T19:41:23.313Z,0.93
2023-06-13T19:44:26.012Z,1.83
2023-06-13T19:47:28.604Z,1.30
2023-06-13T19:50:31.507Z,1.33
2023-06-13T19:53:34.066Z,0.90
2023-06-13T19:56:37.165Z,1.90
2023-06-13T19:59:41.460Z,1.30
2023-06-13T20:02:44.566Z,0.95
2023-06-13T20:05:48.009Z,1.00
2023-06-13T20:08:50.876Z,1.17
2023-06-13T20:11:53.592Z,0.90
2023-06-13T20:14:56.068Z,1.20
2023-06-13T20:18:00.278Z,0.90
2023-06-13T20:21:02.805Z,1.00
2023-06-13T20:24:05.790Z,1.20
2023-06-13T20:27:08.298Z,1.50
2023-06-13T20:30:11.233Z,0.85
2023-06-13T20:33:13.805Z,1.25
2023-06-13T20:36:16.288Z,0.97
2023-06-13T20:39:18.733Z,1.00
2023-06-13T20:42:23.206Z,0.90
2023-06-13T20:45:26.178Z,1.67
2023-06-13T20:48:29.745Z,1.00
2023-06-13T20:51:36.502Z,1.33
2023-06-13T20:54:39.841Z,0.95
2023-06-13T20:57:42.293Z,1.42
2023-06-13T21:00:44.774Z,0.80
2023-06-13T21:03:47.769Z,1.20
2023-06-13T21:06:51.791Z,0.80
2023-06-13T21:09:54.281Z,1.23
2023-06-13T21:12:56.974Z,1.02
2023-06-13T21:16:02.374Z,0.90
2023-06-13T21:19:05.329Z,1.42
2023-06-13T21:22:08.882Z,0.70
2023-06-13T21:25:13.889Z,1.10
2023-06-13T21:28:16.510Z,1.20
2023-06-13T21:31:19.779Z,0.80
2023-06-13T21:34:22.270Z,0.75
2023-06-13T21:37:24.765Z,0.70
2023-06-13T21:40:27.357Z,0.68
2023-06-13T21:43:30.068Z,1.77
2023-06-13T21:46:33.581Z,1.02
2023-06-13T21:49:36.232Z,0.85
2023-06-13T21:52:38.781Z,1.73
2023-06-13T21:55:41.663Z,1.20
2023-06-13T21:58:44.619Z,2.13
2023-06-13T22:01:47.463Z,0.88
2023-06-13T22:04:50.108Z,2.00
2023-06-13T22:07:52.650Z,0.70
2023-06-13T22:10:56.055Z,1.20
2023-06-13T22:13:58.803Z,4.72
2023-06-13T22:17:01.505Z,0.77
2023-06-13T22:20:22.952Z,0.93
2023-06-13T22:23:25.857Z,0.70
2023-06-13T22:26:28.335Z,0.80
2023-06-13T22:29:31.108Z,0.85
2023-06-13T22:32:33.601Z,0.77
2023-06-13T22:35:36.075Z,1.20
2023-06-13T22:38:38.451Z,1.07
2023-06-13T22:41:40.906Z,0.70
2023-06-13T22:44:43.448Z,1.33
2023-06-13T22:47:46.468Z,1.00
2023-06-13T22:50:49.073Z,0.80
2023-06-13T22:53:51.583Z,1.13
2023-06-13T22:56:54.031Z,1.27
2023-06-13T22:59:57.704Z,0.90
2023-06-13T23:03:02.817Z,1.00
2023-06-13T23:06:05.583Z,0.75
2023-06-13T23:09:08.052Z,1.20
2023-06-13T23:12:12.027Z,0.75
2023-06-13T23:15:14.820Z,1.25
2023-06-13T23:18:18.032Z,1.30
2023-06-13T23:21:21.767Z,0.85
2023-06-13T23:24:24.294Z,0.83
2023-06-13T23:27:27.242Z,0.70
2023-06-13T23:30:33.061Z,1.52
2023-06-13T23:33:35.593Z,0.70
2023-06-13T23:36:43.314Z,1.17
2023-06-13T23:42:50.196Z,0.63
2023-06-13T23:45:52.618Z,1.58
2023-06-13T23:48:55.022Z,0.80
2023-06-13T23:51:57.549Z,0.80
2023-06-13T23:55:00.094Z,1.10
2023-06-13T23:58:02.647Z,0.90
